sensor_id;sensor_type;location;lat;lon;timestamp;pressure;altitude;pressure_sealevel;temperature;humidity
8890;BME280;4481;43.406;24.454;2022-10-16T00:01:31;78459.88;;;-144.09;100.00
8890;BME280;4481;43.406;24.454;2022-10-16T00:03:58;78447.31;;;-144.09;100.00
8890;BME280;4481;43.406;24.454;2022-10-16T00:06:25;78453.59;;;-144.09;100.00
8890;BME280;4481;43.406;24.454;2022-10-16T00:08:52;78445.25;;;-144.09;99.79
8890;BME280;4481;43.406;24.454;2022-10-16T00:11:20;78451.50;;;-144.09;99.56
8890;BME280;4481;43.406;24.454;2022-10-16T00:13:48;78455.69;;;-144.09;99.49
8890;BME280;4481;43.406;24.454;2022-10-16T00:16:15;78461.97;;;-144.09;99.34
8890;BME280;4481;43.406;24.454;2022-10-16T00:18:42;78470.31;;;-144.09;99.17
8890;BME280;4481;43.406;24.454;2022-10-16T00:21:10;78482.88;;;-144.09;99.98
8890;BME280;4481;43.406;24.454;2022-10-16T00:23:37;78466.16;;;-144.09;99.21
8890;BME280;4481;43.406;24.454;2022-10-16T00:26:05;78466.16;;;-144.09;99.50
8890;BME280;4481;43.406;24.454;2022-10-16T00:28:33;78476.59;;;-144.09;100.00
8890;BME280;4481;43.406;24.454;2022-10-16T00:31:03;78474.50;;;-144.09;99.94
8890;BME280;4481;43.406;24.454;2022-10-16T00:33:29;78480.78;;;-144.09;100.00
8890;BME280;4481;43.406;24.454;2022-10-16T00:35:57;78455.69;;;-144.09;99.86
8890;BME280;4481;43.406;24.454;2022-10-16T00:38:23;78453.59;;;-144.09;99.67
8890;BME280;4481;43.406;24.454;2022-10-16T00:40:50;78443.16;;;-144.09;99.58
8890;BME280;4481;43.406;24.454;2022-10-16T00:43:38;78432.69;;;-144.09;99.70
8890;BME280;4481;43.406;24.454;2022-10-16T00:46:13;78424.31;;;-144.09;99.68
8890;BME280;4481;43.406;24.454;2022-10-16T00:48:39;78432.69;;;-144.09;99.84
8890;BME280;4481;43.406;24.454;2022-10-16T00:51:06;78441.06;;;-144.09;100.00
8890;BME280;4481;43.406;24.454;2022-10-16T00:53:33;78447.31;;;-144.09;100.00
8890;BME280;4481;43.406;24.454;2022-10-16T00:55:59;78457.78;;;-144.09;100.00
8890;BME280;4481;43.406;24.454;2022-10-16T00:58:26;78451.50;;;-144.09;100.00
8890;BME280;4481;43.406;24.454;2022-10-16T01:00:52;78426.41;;;-144.09;100.00
8890;BME280;4481;43.406;24.454;2022-10-16T01:03:24;78409.69;;;-144.09;100.00
8890;BME280;4481;43.406;24.454;2022-10-16T01:05:59;78418.06;;;-144.09;100.00
8890;BME280;4481;43.406;24.454;2022-10-16T01:08:34;78422.25;;;-144.09;100.00
8890;BME280;4481;43.406;24.454;2022-10-16T01:11:11;78424.31;;;-144.09;100.00
8890;BME280;4481;43.406;24.454;2022-10-16T01:13:42;78436.88;;;-144.09;100.00
8890;BME280;4481;43.406;24.454;2022-10-16T01:16:15;78443.16;;;-144.09;100.00
8890;BME280;4481;43.406;24.454;2022-10-16T01:18:46;78447.31;;;-144.09;100.00
8890;BME280;4481;43.406;24.454;2022-10-16T01:21:20;78457.78;;;-144.09;100.00
8890;BME280;4481;43.406;24.454;2022-10-16T01:23:55;78432.69;;;-144.09;100.00
8890;BME280;4481;43.406;24.454;2022-10-16T01:26:37;78424.31;;;-144.09;100.00
8890;BME280;4481;43.406;24.454;2022-10-16T01:29:12;78428.50;;;-144.09;100.00
8890;BME280;4481;43.406;24.454;2022-10-16T01:31:46;78438.97;;;-144.09;100.00
8890;BME280;4481;43.406;24.454;2022-10-16T01:34:15;78434.78;;;-144.09;100.00
8890;BME280;4481;43.406;24.454;2022-10-16T01:36:47;78436.88;;;-144.09;100.00
8890;BME280;4481;43.406;24.454;2022-10-16T01:39:15;78424.31;;;-144.09;100.00
8890;BME280;4481;43.406;24.454;2022-10-16T01:41:47;78422.25;;;-144.09;100.00
8890;BME280;4481;43.406;24.454;2022-10-16T01:44:19;78424.31;;;-144.09;100.00
8890;BME280;4481;43.406;24.454;2022-10-16T01:46:49;78432.69;;;-144.09;100.00
8890;BME280;4481;43.406;24.454;2022-10-16T01:49:17;78459.88;;;-144.09;100.00
8890;BME280;4481;43.406;24.454;2022-10-16T01:51:47;78447.31;;;-144.09;100.00
8890;BME280;4481;43.406;24.454;2022-10-16T01:54:16;78459.88;;;-144.09;100.00
8890;BME280;4481;43.406;24.454;2022-10-16T01:56:45;78464.06;;;-144.09;100.00
8890;BME280;4481;43.406;24.454;2022-10-16T01:59:14;78474.50;;;-144.09;100.00
8890;BME280;4481;43.406;24.454;2022-10-16T02:01:45;78474.50;;;-144.09;100.00
8890;BME280;4481;43.406;24.454;2022-10-16T02:04:15;78455.69;;;-144.09;100.00
8890;BME280;4481;43.406;24.454;2022-10-16T02:06:43;78461.97;;;-144.09;100.00
8890;BME280;4481;43.406;24.454;2022-10-16T02:09:10;78449.41;;;-144.09;100.00
8890;BME280;4481;43.406;24.454;2022-10-16T02:11:36;78438.97;;;-144.09;100.00
8890;BME280;4481;43.406;24.454;2022-10-16T02:14:04;78457.78;;;-144.09;100.00
8890;BME280;4481;43.406;24.454;2022-10-16T02:16:35;78482.88;;;-144.09;100.00
8890;BME280;4481;43.406;24.454;2022-10-16T02:19:03;78487.06;;;-144.09;100.00
8890;BME280;4481;43.406;24.454;2022-10-16T02:21:34;78487.06;;;-144.09;100.00
8890;BME280;4481;43.406;24.454;2022-10-16T02:24:09;78468.25;;;-144.09;100.00
8890;BME280;4481;43.406;24.454;2022-10-16T02:26:41;78470.31;;;-144.09;100.00
8890;BME280;4481;43.406;24.454;2022-10-16T02:29:12;78478.69;;;-144.09;100.00
8890;BME280;4481;43.406;24.454;2022-10-16T02:31:43;78505.88;;;-144.09;100.00
8890;BME280;4481;43.406;24.454;2022-10-16T02:34:12;78501.69;;;-144.09;100.00
8890;BME280;4481;43.406;24.454;2022-10-16T02:36:40;78516.31;;;-144.09;100.00
8890;BME280;4481;43.406;24.454;2022-10-16T02:39:08;78512.13;;;-144.09;100.00
8890;BME280;4481;43.406;24.454;2022-10-16T02:41:34;78507.97;;;-144.09;100.00
8890;BME280;4481;43.406;24.454;2022-10-16T02:44:00;78480.78;;;-144.09;100.00
8890;BME280;4481;43.406;24.454;2022-10-16T02:46:26;78480.78;;;-144.09;100.00
8890;BME280;4481;43.406;24.454;2022-10-16T02:48:52;78501.69;;;-144.09;100.00
8890;BME280;4481;43.406;24.454;2022-10-16T02:51:19;78512.13;;;-144.09;100.00
8890;BME280;4481;43.406;24.454;2022-10-16T02:53:45;78482.88;;;-144.09;100.00
8890;BME280;4481;43.406;24.454;2022-10-16T02:56:11;78472.41;;;-144.09;99.70
8890;BME280;4481;43.406;24.454;2022-10-16T02:58:38;78487.06;;;-144.09;100.00
8890;BME280;4481;43.406;24.454;2022-10-16T03:01:04;78495.41;;;-144.09;100.00
8890;BME280;4481;43.406;24.454;2022-10-16T03:03:30;78487.06;;;-144.09;100.00
8890;BME280;4481;43.406;24.454;2022-10-16T03:05:56;78503.78;;;-144.09;100.00
8890;BME280;4481;43.406;24.454;2022-10-16T03:08:23;78512.13;;;-144.09;100.00
8890;BME280;4481;43.406;24.454;2022-10-16T03:10:51;78535.13;;;-144.09;100.00
8890;BME280;4481;43.406;24.454;2022-10-16T03:13:17;78539.31;;;-144.09;100.00
8890;BME280;4481;43.406;24.454;2022-10-16T03:15:45;78545.59;;;-144.09;100.00
8890;BME280;4481;43.406;24.454;2022-10-16T03:18:11;78574.88;;;-144.09;100.00
8890;BME280;4481;43.406;24.454;2022-10-16T03:20:38;78568.59;;;-144.09;100.00
8890;BME280;4481;43.406;24.454;2022-10-16T03:23:04;78574.88;;;-144.09;100.00
8890;BME280;4481;43.406;24.454;2022-10-16T03:25:31;78583.22;;;-144.09;100.00
8890;BME280;4481;43.406;24.454;2022-10-16T03:27:57;78589.50;;;-144.09;100.00
8890;BME280;4481;43.406;24.454;2022-10-16T03:30:23;78608.31;;;-144.09;100.00
8890;BME280;4481;43.406;24.454;2022-10-16T03:32:49;78625.03;;;-144.09;100.00
8890;BME280;4481;43.406;24.454;2022-10-16T03:35:19;78602.03;;;-144.09;100.00
8890;BME280;4481;43.406;24.454;2022-10-16T03:37:45;78599.94;;;-144.09;100.00
8890;BME280;4481;43.406;24.454;2022-10-16T03:40:13;78608.31;;;-144.09;100.00
8890;BME280;4481;43.406;24.454;2022-10-16T03:42:39;78595.78;;;-144.09;100.00
8890;BME280;4481;43.406;24.454;2022-10-16T03:45:06;78589.50;;;-144.09;100.00
8890;BME280;4481;43.406;24.454;2022-10-16T03:47:32;78587.41;;;-144.09;100.00
8890;BME280;4481;43.406;24.454;2022-10-16T03:49:58;78591.59;;;-144.09;100.00
8890;BME280;4481;43.406;24.454;2022-10-16T03:52:25;78608.31;;;-144.09;100.00
8890;BME280;4481;43.406;24.454;2022-10-16T03:54:51;78627.13;;;-144.09;100.00
8890;BME280;4481;43.406;24.454;2022-10-16T03:57:17;78635.50;;;-144.09;100.00
8890;BME280;4481;43.406;24.454;2022-10-16T03:59:44;78633.41;;;-144.09;100.00
8890;BME280;4481;43.406;24.454;2022-10-16T04:02:10;78625.03;;;-144.09;100.00
8890;BME280;4481;43.406;24.454;2022-10-16T04:04:36;78618.78;;;-144.09;100.00
8890;BME280;4481;43.406;24.454;2022-10-16T04:07:02;78622.94;;;-144.09;100.00
8890;BME280;4481;43.406;24.454;2022-10-16T04:09:29;78622.94;;;-144.09;100.00
8890;BME280;4481;43.406;24.454;2022-10-16T04:11:55;78629.22;;;-144.09;100.00
8890;BME280;4481;43.406;24.454;2022-10-16T04:14:21;78641.78;;;-144.09;100.00
8890;BME280;4481;43.406;24.454;2022-10-16T04:16:48;78658.50;;;-144.09;100.00
8890;BME280;4481;43.406;24.454;2022-10-16T04:19:14;78648.03;;;-144.09;100.00
8890;BME280;4481;43.406;24.454;2022-10-16T04:21:40;78643.84;;;-144.09;100.00
8890;BME280;4481;43.406;24.454;2022-10-16T04:24:06;78641.78;;;-144.09;100.00
8890;BME280;4481;43.406;24.454;2022-10-16T04:26:32;78637.59;;;-144.09;100.00
8890;BME280;4481;43.406;24.454;2022-10-16T04:28:59;78633.41;;;-144.09;100.00
8890;BME280;4481;43.406;24.454;2022-10-16T04:31:25;78622.94;;;-144.09;100.00
8890;BME280;4481;43.406;24.454;2022-10-16T04:33:51;78612.50;;;-144.09;100.00
8890;BME280;4481;43.406;24.454;2022-10-16T04:36:18;78625.03;;;-144.09;100.00
8890;BME280;4481;43.406;24.454;2022-10-16T04:38:44;78654.31;;;-144.09;100.00
8890;BME280;4481;43.406;24.454;2022-10-16T04:41:10;78660.59;;;-144.09;100.00
8890;BME280;4481;43.406;24.454;2022-10-16T04:43:36;78662.69;;;-144.09;100.00
8890;BME280;4481;43.406;24.454;2022-10-16T04:46:03;78668.94;;;-144.09;100.00
8890;BME280;4481;43.406;24.454;2022-10-16T04:48:30;78668.94;;;-144.09;100.00
8890;BME280;4481;43.406;24.454;2022-10-16T04:50:56;78658.50;;;-144.09;100.00
8890;BME280;4481;43.406;24.454;2022-10-16T04:53:23;78677.31;;;-144.09;100.00
8890;BME280;4481;43.406;24.454;2022-10-16T04:55:49;78673.13;;;-144.09;100.00
8890;BME280;4481;43.406;24.454;2022-10-16T04:58:15;78675.22;;;-144.09;100.00
8890;BME280;4481;43.406;24.454;2022-10-16T05:00:41;78645.94;;;-144.09;100.00
8890;BME280;4481;43.406;24.454;2022-10-16T05:03:07;78656.41;;;-144.09;100.00
8890;BME280;4481;43.406;24.454;2022-10-16T05:05:34;78668.94;;;-144.09;100.00
8890;BME280;4481;43.406;24.454;2022-10-16T05:08:01;78677.31;;;-144.09;100.00
8890;BME280;4481;43.406;24.454;2022-10-16T05:10:27;78654.31;;;-144.09;100.00
8890;BME280;4481;43.406;24.454;2022-10-16T05:12:53;78641.78;;;-144.09;100.00
8890;BME280;4481;43.406;24.454;2022-10-16T05:15:19;78639.69;;;-144.09;100.00
8890;BME280;4481;43.406;24.454;2022-10-16T05:17:45;78652.22;;;-144.09;100.00
8890;BME280;4481;43.406;24.454;2022-10-16T05:20:12;78660.59;;;-144.09;100.00
8890;BME280;4481;43.406;24.454;2022-10-16T05:22:38;78633.41;;;-144.09;100.00
8890;BME280;4481;43.406;24.454;2022-10-16T05:25:05;78606.22;;;-144.09;99.31
8890;BME280;4481;43.406;24.454;2022-10-16T05:27:32;78602.03;;;-144.09;99.41
8890;BME280;4481;43.406;24.454;2022-10-16T05:29:58;78631.31;;;-144.09;99.84
8890;BME280;4481;43.406;24.454;2022-10-16T05:32:24;78631.31;;;-144.09;100.00
8890;BME280;4481;43.406;24.454;2022-10-16T05:34:50;78612.50;;;-144.09;99.68
8890;BME280;4481;43.406;24.454;2022-10-16T05:37:16;78614.59;;;-144.09;99.81
8890;BME280;4481;43.406;24.454;2022-10-16T05:39:43;78608.31;;;-144.09;100.00
8890;BME280;4481;43.406;24.454;2022-10-16T05:42:09;78610.41;;;-144.09;100.00
8890;BME280;4481;43.406;24.454;2022-10-16T05:44:35;78599.94;;;-144.09;100.00
8890;BME280;4481;43.406;24.454;2022-10-16T05:47:02;78574.88;;;-144.09;99.95
8890;BME280;4481;43.406;24.454;2022-10-16T05:49:28;78553.97;;;-144.09;99.62
8890;BME280;4481;43.406;24.454;2022-10-16T05:51:54;78545.59;;;-144.09;99.96
8890;BME280;4481;43.406;24.454;2022-10-16T05:54:20;78537.22;;;-144.09;100.00
8890;BME280;4481;43.406;24.454;2022-10-16T05:56:46;78518.41;;;-144.09;100.00
8890;BME280;4481;43.406;24.454;2022-10-16T05:59:13;78503.78;;;-144.09;100.00
8890;BME280;4481;43.406;24.454;2022-10-16T06:01:39;78491.22;;;-144.09;100.00
8890;BME280;4481;43.406;24.454;2022-10-16T06:04:05;78466.16;;;-144.09;99.76
8890;BME280;4481;43.406;24.454;2022-10-16T06:06:31;78441.06;;;-144.09;99.87
8890;BME280;4481;43.406;24.454;2022-10-16T06:08:57;78424.31;;;-144.09;99.20
8890;BME280;4481;43.406;24.454;2022-10-16T06:11:26;78395.06;;;-144.09;99.27
8890;BME280;4481;43.406;24.454;2022-10-16T06:13:55;78367.88;;;-144.09;98.75
8890;BME280;4481;43.406;24.454;2022-10-16T06:16:23;78344.88;;;-144.09;98.33
8890;BME280;4481;43.406;24.454;2022-10-16T06:18:51;78328.16;;;-144.09;98.26
8890;BME280;4481;43.406;24.454;2022-10-16T06:21:19;78311.44;;;-144.09;97.72
8890;BME280;4481;43.406;24.454;2022-10-16T06:23:46;78290.53;;;-144.09;97.85
8890;BME280;4481;43.406;24.454;2022-10-16T06:26:13;78286.34;;;-144.09;97.84
8890;BME280;4481;43.406;24.454;2022-10-16T06:28:40;78286.34;;;-144.09;97.74
8890;BME280;4481;43.406;24.454;2022-10-16T06:31:08;78311.44;;;-144.09;98.18
8890;BME280;4481;43.406;24.454;2022-10-16T06:33:35;78273.81;;;-144.09;97.78
8890;BME280;4481;43.406;24.454;2022-10-16T06:36:02;78229.91;;;-144.09;96.84
8890;BME280;4481;43.406;24.454;2022-10-16T06:38:28;78190.19;;;-144.09;95.84
8890;BME280;4481;43.406;24.454;2022-10-16T06:40:55;78163.00;;;-144.09;95.16
8890;BME280;4481;43.406;24.454;2022-10-16T06:43:21;78137.91;;;-144.09;94.14
8890;BME280;4481;43.406;24.454;2022-10-16T06:45:50;78112.84;;;-144.09;93.72
8890;BME280;4481;43.406;24.454;2022-10-16T06:48:17;78087.75;;;-144.09;93.22
8890;BME280;4481;43.406;24.454;2022-10-16T06:50:43;78056.38;;;-144.09;92.67
8890;BME280;4481;43.406;24.454;2022-10-16T06:53:09;78033.38;;;-144.09;92.28
8890;BME280;4481;43.406;24.454;2022-10-16T06:55:35;78012.50;;;-144.09;91.56
8890;BME280;4481;43.406;24.454;2022-10-16T06:58:02;77993.69;;;-144.09;91.35
8890;BME280;4481;43.406;24.454;2022-10-16T07:00:28;77974.84;;;-144.09;90.86
8890;BME280;4481;43.406;24.454;2022-10-16T07:02:54;77956.03;;;-144.09;90.68
8890;BME280;4481;43.406;24.454;2022-10-16T07:05:20;77928.88;;;-144.09;90.20
8890;BME280;4481;43.406;24.454;2022-10-16T07:07:47;77907.97;;;-144.09;89.54
8890;BME280;4481;43.406;24.454;2022-10-16T07:10:13;77882.88;;;-144.09;89.32
8890;BME280;4481;43.406;24.454;2022-10-16T07:12:39;77861.97;;;-144.09;88.93
8890;BME280;4481;43.406;24.454;2022-10-16T07:15:06;77841.06;;;-144.09;88.48
8890;BME280;4481;43.406;24.454;2022-10-16T07:17:32;77824.34;;;-144.09;87.90
8890;BME280;4481;43.406;24.454;2022-10-16T07:19:59;77809.72;;;-144.09;87.48
8890;BME280;4481;43.406;24.454;2022-10-16T07:22:25;77790.91;;;-144.09;87.22
8890;BME280;4481;43.406;24.454;2022-10-16T07:24:52;77778.38;;;-144.09;87.02
8890;BME280;4481;43.406;24.454;2022-10-16T07:27:18;77755.38;;;-144.09;86.59
8890;BME280;4481;43.406;24.454;2022-10-16T07:29:44;77734.47;;;-144.09;86.23
8890;BME280;4481;43.406;24.454;2022-10-16T07:32:10;77713.56;;;-144.09;85.85
8890;BME280;4481;43.406;24.454;2022-10-16T07:34:36;77694.75;;;-144.09;85.47
8890;BME280;4481;43.406;24.454;2022-10-16T07:37:02;77684.31;;;-144.09;85.19
8890;BME280;4481;43.406;24.454;2022-10-16T07:39:28;77671.75;;;-144.09;85.03
8890;BME280;4481;43.406;24.454;2022-10-16T07:41:55;77655.03;;;-144.09;84.72
8890;BME280;4481;43.406;24.454;2022-10-16T07:44:21;77644.59;;;-144.09;84.30
8890;BME280;4481;43.406;24.454;2022-10-16T07:46:47;77629.97;;;-144.09;83.84
8890;BME280;4481;43.406;24.454;2022-10-16T07:49:13;77617.41;;;-144.09;83.49
8890;BME280;4481;43.406;24.454;2022-10-16T07:51:40;77602.78;;;-144.09;83.34
8890;BME280;4481;43.406;24.454;2022-10-16T07:54:07;77596.50;;;-144.09;83.15
8890;BME280;4481;43.406;24.454;2022-10-16T07:56:33;77575.63;;;-144.09;82.58
8890;BME280;4481;43.406;24.454;2022-10-16T07:59:00;77571.44;;;-144.09;82.37
8890;BME280;4481;43.406;24.454;2022-10-16T08:01:26;77552.63;;;-144.09;82.46
8890;BME280;4481;43.406;24.454;2022-10-16T08:03:53;77533.81;;;-144.09;82.24
8890;BME280;4481;43.406;24.454;2022-10-16T08:06:20;77525.44;;;-144.09;82.35
8890;BME280;4481;43.406;24.454;2022-10-16T08:08:47;77504.53;;;-144.09;81.61
8890;BME280;4481;43.406;24.454;2022-10-16T08:11:13;77496.19;;;-144.09;81.09
8890;BME280;4481;43.406;24.454;2022-10-16T08:13:40;77498.28;;;-144.09;80.31
8890;BME280;4481;43.406;24.454;2022-10-16T08:16:07;77502.47;;;-144.09;80.48
8890;BME280;4481;43.406;24.454;2022-10-16T08:18:35;77479.47;;;-144.09;80.13
8890;BME280;4481;43.406;24.454;2022-10-16T08:21:02;77477.38;;;-144.09;79.82
8890;BME280;4481;43.406;24.454;2022-10-16T08:23:28;77462.75;;;-144.09;80.32
8890;BME280;4481;43.406;24.454;2022-10-16T08:25:55;77452.28;;;-144.09;79.86
8890;BME280;4481;43.406;24.454;2022-10-16T08:28:22;77454.38;;;-144.09;79.74
8890;BME280;4481;43.406;24.454;2022-10-16T08:30:49;77439.75;;;-144.09;79.40
8890;BME280;4481;43.406;24.454;2022-10-16T08:33:15;77437.66;;;-144.09;78.81
8890;BME280;4481;43.406;24.454;2022-10-16T08:35:42;77485.72;;;-144.09;79.39
8890;BME280;4481;43.406;24.454;2022-10-16T08:38:08;77458.56;;;-144.09;79.20
8890;BME280;4481;43.406;24.454;2022-10-16T08:40:36;77446.03;;;-144.09;78.84
8890;BME280;4481;43.406;24.454;2022-10-16T08:43:29;77420.94;;;-144.09;78.76
8890;BME280;4481;43.406;24.454;2022-10-16T08:46:20;77408.41;;;-144.09;78.41
8890;BME280;4481;43.406;24.454;2022-10-16T08:48:50;77395.88;;;-144.09;78.24
8890;BME280;4481;43.406;24.454;2022-10-16T08:51:20;77393.78;;;-144.09;78.23
8890;BME280;4481;43.406;24.454;2022-10-16T08:53:51;77368.69;;;-144.09;77.08
8890;BME280;4481;43.406;24.454;2022-10-16T08:56:18;77358.25;;;-144.09;77.23
8890;BME280;4481;43.406;24.454;2022-10-16T08:58:46;77351.97;;;-144.09;76.43
8890;BME280;4481;43.406;24.454;2022-10-16T09:01:15;77354.06;;;-144.09;76.48
8890;BME280;4481;43.406;24.454;2022-10-16T09:03:58;77341.53;;;-144.09;75.97
8890;BME280;4481;43.406;24.454;2022-10-16T09:06:36;77316.44;;;-144.09;75.57
8890;BME280;4481;43.406;24.454;2022-10-16T09:09:20;77345.69;;;-144.09;76.26
8890;BME280;4481;43.406;24.454;2022-10-16T09:11:52;77339.44;;;-144.09;75.65
8890;BME280;4481;43.406;24.454;2022-10-16T09:14:38;77354.06;;;-144.09;75.44
8890;BME280;4481;43.406;24.454;2022-10-16T09:17:18;77316.44;;;-144.09;74.74
8890;BME280;4481;43.406;24.454;2022-10-16T09:19:51;77308.09;;;-144.09;75.02
8890;BME280;4481;43.406;24.454;2022-10-16T09:22:21;77306.00;;;-144.09;74.82
8890;BME280;4481;43.406;24.454;2022-10-16T09:24:51;77320.63;;;-144.09;74.70
8890;BME280;4481;43.406;24.454;2022-10-16T09:27:17;77289.28;;;-144.09;73.80
8890;BME280;4481;43.406;24.454;2022-10-16T09:29:43;77268.38;;;-144.09;72.64
8890;BME280;4481;43.406;24.454;2022-10-16T09:32:12;77243.28;;;-144.09;72.57
8890;BME280;4481;43.406;24.454;2022-10-16T09:34:42;77234.94;;;-144.09;70.08
8890;BME280;4481;43.406;24.454;2022-10-16T09:37:12;77249.56;;;-144.09;69.60
8890;BME280;4481;43.406;24.454;2022-10-16T09:39:44;77260.00;;;-144.09;69.85
8890;BME280;4481;43.406;24.454;2022-10-16T09:42:14;77301.81;;;-144.09;70.07
8890;BME280;4481;43.406;24.454;2022-10-16T09:44:41;77272.56;;;-144.09;70.29
8890;BME280;4481;43.406;24.454;2022-10-16T09:47:13;77232.84;;;-144.09;69.34
8890;BME280;4481;43.406;24.454;2022-10-16T09:49:51;77228.66;;;-144.09;68.77
8890;BME280;4481;43.406;24.454;2022-10-16T09:52:18;77211.94;;;-144.09;68.67
8890;BME280;4481;43.406;24.454;2022-10-16T09:54:50;77203.59;;;-144.09;67.12
8890;BME280;4481;43.406;24.454;2022-10-16T09:57:16;77241.19;;;-144.09;67.49
8890;BME280;4481;43.406;24.454;2022-10-16T09:59:46;77245.38;;;-144.09;67.19
8890;BME280;4481;43.406;24.454;2022-10-16T10:02:14;77237.03;;;-144.09;66.70
8890;BME280;4481;43.406;24.454;2022-10-16T10:04:44;77230.75;;;-144.09;66.10
8890;BME280;4481;43.406;24.454;2022-10-16T10:07:19;77232.84;;;-144.09;66.05
8890;BME280;4481;43.406;24.454;2022-10-16T10:09:47;77228.66;;;-144.09;66.25
8890;BME280;4481;43.406;24.454;2022-10-16T10:12:21;77209.84;;;-144.09;66.96
8890;BME280;4481;43.406;24.454;2022-10-16T10:14:48;77193.13;;;-144.09;66.23
8890;BME280;4481;43.406;24.454;2022-10-16T10:17:18;77178.50;;;-144.09;66.00
8890;BME280;4481;43.406;24.454;2022-10-16T10:19:50;77157.59;;;-144.09;64.81
8890;BME280;4481;43.406;24.454;2022-10-16T10:22:22;77157.59;;;-144.09;66.00
8890;BME280;4481;43.406;24.454;2022-10-16T10:25:15;77149.25;;;-144.09;64.28
8890;BME280;4481;43.406;24.454;2022-10-16T10:27:51;77163.88;;;-144.09;64.44
8890;BME280;4481;43.406;24.454;2022-10-16T10:30:23;77153.41;;;-144.09;63.75
8890;BME280;4481;43.406;24.454;2022-10-16T10:33:00;77157.59;;;-144.09;62.67
8890;BME280;4481;43.406;24.454;2022-10-16T10:35:41;77159.69;;;-144.09;60.95
8890;BME280;4481;43.406;24.454;2022-10-16T10:38:23;77153.41;;;-144.09;58.84
8890;BME280;4481;43.406;24.454;2022-10-16T10:41:00;77140.88;;;-144.09;58.15
8890;BME280;4481;43.406;24.454;2022-10-16T10:43:40;77130.44;;;-144.09;58.10
8890;BME280;4481;43.406;24.454;2022-10-16T10:46:16;77134.63;;;-144.09;58.79
8890;BME280;4481;43.406;24.454;2022-10-16T10:48:54;77161.78;;;-144.09;59.35
8890;BME280;4481;43.406;24.454;2022-10-16T10:51:28;77153.41;;;-144.09;58.47
8890;BME280;4481;43.406;24.454;2022-10-16T10:54:06;77157.59;;;-144.09;58.66
8890;BME280;4481;43.406;24.454;2022-10-16T10:56:45;77140.88;;;-144.09;57.93
8890;BME280;4481;43.406;24.454;2022-10-16T11:02:17;77109.53;;;-144.09;57.71
8890;BME280;4481;43.406;24.454;2022-10-16T11:04:58;77105.34;;;-144.09;58.58
8890;BME280;4481;43.406;24.454;2022-10-16T11:07:28;77088.63;;;-144.09;57.96
8890;BME280;4481;43.406;24.454;2022-10-16T11:09:59;77099.09;;;-144.09;57.26
8890;BME280;4481;43.406;24.454;2022-10-16T11:12:29;77090.72;;;-144.09;58.15
8890;BME280;4481;43.406;24.454;2022-10-16T11:15:02;77078.19;;;-144.09;56.63
8890;BME280;4481;43.406;24.454;2022-10-16T11:17:33;77078.19;;;-144.09;56.97
8890;BME280;4481;43.406;24.454;2022-10-16T11:20:10;77057.28;;;-144.09;56.68
8890;BME280;4481;43.406;24.454;2022-10-16T11:22:40;77084.47;;;-144.09;56.76
8890;BME280;4481;43.406;24.454;2022-10-16T11:25:14;77082.38;;;-144.09;56.43
8890;BME280;4481;43.406;24.454;2022-10-16T11:27:45;77094.91;;;-144.09;56.40
8890;BME280;4481;43.406;24.454;2022-10-16T11:30:16;77097.00;;;-144.09;56.89
8890;BME280;4481;43.406;24.454;2022-10-16T11:33:02;77076.09;;;-144.09;57.07
8890;BME280;4481;43.406;24.454;2022-10-16T11:35:38;77088.63;;;-144.09;56.81
8890;BME280;4481;43.406;24.454;2022-10-16T11:38:12;77103.25;;;-144.09;56.43
8890;BME280;4481;43.406;24.454;2022-10-16T11:40:43;77094.91;;;-144.09;57.07
8890;BME280;4481;43.406;24.454;2022-10-16T11:43:17;77094.91;;;-144.09;56.92
8890;BME280;4481;43.406;24.454;2022-10-16T11:45:48;77092.81;;;-144.09;56.68
8890;BME280;4481;43.406;24.454;2022-10-16T11:48:23;77101.19;;;-144.09;57.19
8890;BME280;4481;43.406;24.454;2022-10-16T11:50:53;77088.63;;;-144.09;55.89
8890;BME280;4481;43.406;24.454;2022-10-16T11:53:28;77074.00;;;-144.09;54.89
8890;BME280;4481;43.406;24.454;2022-10-16T11:55:58;77059.38;;;-144.09;55.15
8890;BME280;4481;43.406;24.454;2022-10-16T11:58:28;77059.38;;;-144.09;55.30
8890;BME280;4481;43.406;24.454;2022-10-16T12:01:03;77057.28;;;-144.09;55.05
8890;BME280;4481;43.406;24.454;2022-10-16T12:03:40;77040.56;;;-144.09;55.83
8890;BME280;4481;43.406;24.454;2022-10-16T12:06:27;77061.47;;;-144.09;54.93
8890;BME280;4481;43.406;24.454;2022-10-16T12:08:58;77076.09;;;-144.09;54.82
8890;BME280;4481;43.406;24.454;2022-10-16T12:11:35;77082.38;;;-144.09;55.60
8890;BME280;4481;43.406;24.454;2022-10-16T12:14:33;77053.09;;;-144.09;54.35
8890;BME280;4481;43.406;24.454;2022-10-16T12:17:02;77057.28;;;-144.09;54.78
8890;BME280;4481;43.406;24.454;2022-10-16T12:19:31;77059.38;;;-144.09;54.95
8890;BME280;4481;43.406;24.454;2022-10-16T12:22:00;77067.75;;;-144.09;52.78
8890;BME280;4481;43.406;24.454;2022-10-16T12:24:32;77053.09;;;-144.09;53.46
8890;BME280;4481;43.406;24.454;2022-10-16T12:27:00;77032.22;;;-144.09;53.93
8890;BME280;4481;43.406;24.454;2022-10-16T12:29:33;77023.84;;;-144.09;53.25
8890;BME280;4481;43.406;24.454;2022-10-16T12:32:00;77042.66;;;-144.09;53.19
8890;BME280;4481;43.406;24.454;2022-10-16T12:34:28;77053.09;;;-144.09;53.61
8890;BME280;4481;43.406;24.454;2022-10-16T12:36:56;77028.03;;;-144.09;52.19
8890;BME280;4481;43.406;24.454;2022-10-16T12:39:33;77040.56;;;-144.09;52.74
8890;BME280;4481;43.406;24.454;2022-10-16T12:42:04;77028.03;;;-144.09;51.64
8890;BME280;4481;43.406;24.454;2022-10-16T12:44:34;77044.75;;;-144.09;51.76
8890;BME280;4481;43.406;24.454;2022-10-16T12:47:01;77063.56;;;-144.09;52.01
8890;BME280;4481;43.406;24.454;2022-10-16T12:49:34;77076.09;;;-144.09;51.87
8890;BME280;4481;43.406;24.454;2022-10-16T12:52:02;77069.81;;;-144.09;52.38
8890;BME280;4481;43.406;24.454;2022-10-16T12:54:30;77044.75;;;-144.09;51.38
8890;BME280;4481;43.406;24.454;2022-10-16T12:57:13;77042.66;;;-144.09;51.32
8890;BME280;4481;43.406;24.454;2022-10-16T12:59:51;77059.38;;;-144.09;51.31